createdAt,value
2018-06-17T00:00:29.382Z,99.90
2018-06-17T00:02:57.694Z,99.90
2018-06-17T00:05:25.998Z,99.90
2018-06-17T00:07:54.768Z,99.90
2018-06-17T00:10:23.206Z,99.90
2018-06-17T00:12:51.513Z,99.90
2018-06-17T00:15:19.821Z,99.90
2018-06-17T00:17:48.104Z,99.90
2018-06-17T00:20:16.448Z,99.90
2018-06-17T00:22:44.784Z,99.90
2018-06-17T00:25:13.093Z,99.90
2018-06-17T00:27:41.433Z,99.90
2018-06-17T00:30:09.767Z,99.90
2018-06-17T00:32:38.093Z,99.90
2018-06-17T00:35:06.429Z,99.90
2018-06-17T00:37:34.748Z,99.90
2018-06-17T00:40:03.052Z,99.90
2018-06-17T00:42:31.405Z,99.90
2018-06-17T00:44:59.700Z,99.90
2018-06-17T00:47:28.053Z,99.90
2018-06-17T00:49:56.357Z,99.90
2018-06-17T00:54:52.705Z,99.90
2018-06-17T00:57:32.278Z,99.90
2018-06-17T01:00:00.568Z,99.90
2018-06-17T01:02:28.873Z,99.90
2018-06-17T01:04:57.161Z,99.90
2018-06-17T01:07:25.465Z,99.90
2018-06-17T01:09:54.026Z,99.90
2018-06-17T01:12:22.345Z,99.90
2018-06-17T01:14:50.672Z,99.90
2018-06-17T01:17:18.997Z,99.90
2018-06-17T01:19:47.298Z,99.90
2018-06-17T01:22:15.778Z,99.90
2018-06-17T01:24:44.149Z,99.90
2018-06-17T01:27:13.697Z,99.90
2018-06-17T01:29:42.001Z,99.90
2018-06-17T01:32:11.133Z,99.90
2018-06-17T01:34:39.420Z,99.90
2018-06-17T01:37:07.721Z,99.90
2018-06-17T01:39:36.017Z,99.90
2018-06-17T01:42:04.480Z,99.90
2018-06-17T01:44:32.897Z,99.90
2018-06-17T01:47:01.201Z,99.90
2018-06-17T01:49:29.942Z,99.90
2018-06-17T01:51:58.461Z,99.90
2018-06-17T01:54:26.766Z,99.90
2018-06-17T01:56:55.137Z,99.90
2018-06-17T01:59:23.517Z,99.90
2018-06-17T02:01:51.818Z,99.90
2018-06-17T02:04:25.429Z,99.90
2018-06-17T02:06:59.096Z,99.90
2018-06-17T02:09:32.779Z,99.90
2018-06-17T02:12:06.511Z,99.90
2018-06-17T02:14:40.147Z,99.90
2018-06-17T02:17:09.166Z,99.90
2018-06-17T02:19:37.447Z,99.90
2018-06-17T02:22:06.049Z,99.90
2018-06-17T02:24:34.349Z,99.90
2018-06-17T02:27:02.693Z,99.90
2018-06-17T02:29:31.068Z,99.90
2018-06-17T02:31:59.414Z,99.90
2018-06-17T02:34:27.689Z,99.90
2018-06-17T02:36:56.025Z,99.90
2018-06-17T02:39:24.413Z,99.90
2018-06-17T02:41:54.138Z,99.90
2018-06-17T02:44:22.513Z,99.90
2018-06-17T02:46:56.023Z,99.90
2018-06-17T02:49:29.809Z,99.90
2018-06-17T02:52:03.408Z,99.90
2018-06-17T02:54:37.212Z,99.90
2018-06-17T02:57:05.506Z,99.90
2018-06-17T02:59:33.841Z,99.90
2018-06-17T03:02:02.291Z,99.90
2018-06-17T03:04:30.904Z,99.90
2018-06-17T03:06:59.413Z,99.90
2018-06-17T03:09:27.805Z,99.90
2018-06-17T03:11:56.349Z,99.90
2018-06-17T03:14:25.109Z,99.90
2018-06-17T03:16:53.446Z,99.90
2018-06-17T03:19:22.194Z,99.90
2018-06-17T03:21:50.514Z,99.90
2018-06-17T03:24:23.117Z,99.90
2018-06-17T03:26:56.733Z,99.90
2018-06-17T03:29:31.326Z,99.90
2018-06-17T03:32:04.974Z,99.90
2018-06-17T03:34:33.265Z,99.90
2018-06-17T03:37:01.569Z,99.90
2018-06-17T03:39:30.018Z,99.90
2018-06-17T03:41:58.293Z,99.90
2018-06-17T03:44:26.956Z,99.90
2018-06-17T03:46:55.247Z,99.90
2018-06-17T03:49:24.101Z,99.90
2018-06-17T03:51:52.688Z,99.90
2018-06-17T03:54:20.980Z,99.90
2018-06-17T03:56:49.383Z,99.90
2018-06-17T03:59:17.712Z,99.90
2018-06-17T04:01:46.185Z,99.90
2018-06-17T04:04:14.599Z,99.90
2018-06-17T04:06:43.934Z,99.90
2018-06-17T04:09:13.966Z,99.90
2018-06-17T04:11:42.282Z,99.90
2018-06-17T04:14:10.569Z,99.90
2018-06-17T04:16:38.869Z,99.90
2018-06-17T04:19:07.307Z,99.90
2018-06-17T04:21:35.615Z,99.90
2018-06-17T04:24:03.913Z,99.90
2018-06-17T04:26:32.390Z,99.90
2018-06-17T04:29:00.814Z,99.90
2018-06-17T04:31:29.173Z,99.90
2018-06-17T04:33:57.627Z,99.90
2018-06-17T04:36:26.185Z,99.90
2018-06-17T04:38:54.561Z,99.90
2018-06-17T04:41:23.014Z,99.90
2018-06-17T04:43:51.480Z,99.90
2018-06-17T04:46:19.858Z,99.90
2018-06-17T04:48:48.137Z,99.90
2018-06-17T04:51:16.601Z,99.90
2018-06-17T04:56:13.269Z,99.90
2018-06-17T04:58:41.994Z,99.90
2018-06-17T05:01:10.340Z,99.90
2018-06-17T05:03:38.794Z,99.90
2018-06-17T05:06:07.193Z,99.90
2018-06-17T05:11:03.685Z,99.90
2018-06-17T05:13:32.006Z,99.90
2018-06-17T05:16:00.321Z,99.90
2018-06-17T05:18:28.625Z,99.90
2018-06-17T05:20:56.926Z,99.90
2018-06-17T05:23:25.185Z,99.90
2018-06-17T05:25:53.469Z,99.90
2018-06-17T05:28:21.812Z,99.90
2018-06-17T05:30:50.146Z,99.90
2018-06-17T05:33:18.433Z,99.90
2018-06-17T05:35:46.994Z,99.90
2018-06-17T05:38:15.293Z,99.90
2018-06-17T05:40:43.573Z,99.90
2018-06-17T05:43:11.923Z,99.90
2018-06-17T05:45:40.221Z,99.90
2018-06-17T05:48:08.597Z,99.90
2018-06-17T05:50:36.931Z,99.90
2018-06-17T05:53:05.290Z,99.90
2018-06-17T05:55:33.686Z,99.90
2018-06-17T05:58:01.988Z,99.90
2018-06-17T06:00:30.366Z,99.90
2018-06-17T06:02:58.747Z,99.90
2018-06-17T06:05:27.041Z,99.90
2018-06-17T06:07:55.414Z,99.90
2018-06-17T06:10:23.818Z,99.90
2018-06-17T06:12:52.143Z,99.90
2018-06-17T06:15:20.488Z,99.90
2018-06-17T06:17:48.733Z,99.90
2018-06-17T06:20:17.153Z,99.90
2018-06-17T06:22:45.577Z,99.90
2018-06-17T06:25:13.991Z,99.90
2018-06-17T06:27:42.351Z,99.90
2018-06-17T06:30:10.638Z,99.90
2018-06-17T06:32:38.937Z,99.90
2018-06-17T06:35:07.423Z,99.90
2018-06-17T06:37:36.049Z,99.90
2018-06-17T06:40:04.442Z,99.90
2018-06-17T06:42:32.894Z,99.90
2018-06-17T06:45:01.342Z,99.90
2018-06-17T06:47:29.668Z,99.90
2018-06-17T06:49:58.038Z,99.90
2018-06-17T06:52:26.360Z,99.90
2018-06-17T06:54:54.841Z,99.90
2018-06-17T06:57:23.271Z,99.90
2018-06-17T06:59:51.634Z,99.90
2018-06-17T07:02:31.274Z,99.90
2018-06-17T07:05:11.156Z,99.90
2018-06-17T07:07:50.825Z,99.90
2018-06-17T07:10:23.883Z,99.90
2018-06-17T07:12:52.273Z,99.90
2018-06-17T07:15:32.097Z,99.90
2018-06-17T07:18:34.578Z,99.90
2018-06-17T07:21:02.961Z,99.90
2018-06-17T07:23:31.473Z,99.90
2018-06-17T07:26:37.744Z,99.90
2018-06-17T07:29:17.667Z,99.90
2018-06-17T07:31:46.165Z,99.90
2018-06-17T07:34:15.331Z,99.90
2018-06-17T07:36:44.002Z,99.90
2018-06-17T07:41:34.529Z,99.80
2018-06-17T07:44:02.982Z,99.90
2018-06-17T07:46:31.491Z,99.90
2018-06-17T07:49:45.130Z,99.90
2018-06-17T07:52:26.158Z,99.90
2018-06-17T07:54:54.696Z,99.90
2018-06-17T07:57:24.478Z,99.90
2018-06-17T07:59:52.919Z,99.90
2018-06-17T08:02:21.687Z,99.90
2018-06-17T08:04:50.113Z,99.90
2018-06-17T08:07:19.721Z,99.90
2018-06-17T08:09:55.298Z,99.20
2018-06-17T08:12:23.747Z,97.60
2018-06-17T08:14:52.223Z,97.90
2018-06-17T08:17:20.790Z,98.90
2018-06-17T08:19:49.221Z,97.50
2018-06-17T08:22:17.695Z,97.80
2018-06-17T08:24:46.093Z,97.30
2018-06-17T08:27:14.463Z,97.20
2018-06-17T08:29:42.946Z,97.20
2018-06-17T08:32:11.293Z,96.10
2018-06-17T08:34:39.608Z,95.30
2018-06-17T08:37:08.100Z,96.10
2018-06-17T08:39:36.494Z,95.40
2018-06-17T08:42:05.254Z,95.30
2018-06-17T08:44:33.783Z,96.10
2018-06-17T08:47:02.223Z,94.30
2018-06-17T08:49:30.654Z,95.10
2018-06-17T08:51:59.120Z,95.20
2018-06-17T08:54:27.653Z,94.90
2018-06-17T08:56:56.222Z,94.90
2018-06-17T08:59:25.784Z,95.00
2018-06-17T09:01:54.202Z,94.20
2018-06-17T09:04:22.601Z,94.30
2018-06-17T09:06:50.982Z,94.30
2018-06-17T09:09:19.463Z,94.50
2018-06-17T09:11:48.037Z,94.80
2018-06-17T09:14:16.602Z,94.60
2018-06-17T09:16:45.092Z,92.70
2018-06-17T09:19:13.817Z,92.40
2018-06-17T09:21:42.204Z,92.10
2018-06-17T09:24:10.514Z,91.60
2018-06-17T09:26:38.797Z,91.60
2018-06-17T09:29:11.177Z,91.50
2018-06-17T09:31:39.709Z,91.30
2018-06-17T09:34:08.049Z,90.90
2018-06-17T09:36:36.347Z,91.80
2018-06-17T09:39:07.262Z,91.00
2018-06-17T09:41:35.571Z,91.80
2018-06-17T09:44:03.948Z,91.70
2018-06-17T09:46:32.650Z,92.50
2018-06-17T09:49:01.048Z,92.20
2018-06-17T09:51:29.388Z,91.30
2018-06-17T09:53:57.699Z,91.70
2018-06-17T09:56:26.006Z,91.10
2018-06-17T09:58:54.434Z,91.20
2018-06-17T10:01:22.801Z,90.30
2018-06-17T10:03:51.097Z,90.00
2018-06-17T10:06:19.404Z,89.70
2018-06-17T10:27:21.070Z,88.40
2018-06-17T10:29:50.559Z,88.60
2018-06-17T10:32:22.406Z,86.30
2018-06-17T20:33:54.242Z,96.10
2018-06-17T20:36:27.956Z,96.80
2018-06-17T20:39:01.577Z,97.60
2018-06-17T20:41:35.247Z,97.70
2018-06-17T20:44:04.798Z,97.70
2018-06-17T20:46:33.298Z,98.40
2018-06-17T20:49:02.066Z,98.00
2018-06-17T20:51:30.442Z,97.90
2018-06-17T20:53:59.238Z,97.10
2018-06-17T20:56:28.055Z,97.30
2018-06-17T20:58:56.711Z,95.90
2018-06-17T21:01:25.935Z,95.30
2018-06-17T21:03:54.569Z,96.30
2018-06-17T21:06:37.348Z,95.70
2018-06-17T21:09:48.574Z,94.80
2018-06-17T21:12:27.969Z,94.00
2018-06-17T21:15:22.351Z,93.30
2018-06-17T21:17:56.604Z,93.70
2018-06-17T21:20:38.051Z,92.80
2018-06-17T21:26:15.674Z,93.40
2018-06-17T21:28:49.904Z,93.10
2018-06-17T21:31:28.974Z,93.40
2018-06-17T21:34:17.560Z,93.40
2018-06-17T21:37:10.797Z,93.20
2018-06-17T21:39:45.523Z,93.20
2018-06-17T21:42:27.215Z,92.70
2018-06-17T21:45:15.260Z,92.50
2018-06-17T21:57:25.816Z,93.00
2018-06-17T22:07:02.730Z,93.00
2018-06-17T22:09:47.793Z,93.00
2018-06-17T22:12:29.261Z,93.30
2018-06-17T22:17:15.623Z,93.40
2018-06-17T22:19:56.525Z,94.10
2018-06-17T22:22:28.734Z,93.60
2018-06-17T22:25:00.894Z,93.90
2018-06-17T22:27:37.841Z,93.60
2018-06-17T22:32:34.853Z,93.60
2018-06-17T22:35:03.792Z,93.80
2018-06-17T22:37:32.137Z,93.70
2018-06-17T22:40:01.726Z,93.80
2018-06-17T22:42:30.259Z,93.70
2018-06-17T22:44:58.816Z,93.70
2018-06-17T22:47:32.432Z,93.90
2018-06-17T22:50:00.944Z,94.00
2018-06-17T22:52:29.642Z,94.30
2018-06-17T22:54:58.005Z,94.30
2018-06-17T22:57:32.143Z,94.30
2018-06-17T23:00:05.873Z,94.20
2018-06-17T23:02:39.589Z,94.60
2018-06-17T23:05:13.193Z,94.80
2018-06-17T23:07:47.038Z,94.60
2018-06-17T23:10:15.649Z,94.70
2018-06-17T23:12:44.337Z,94.50
2018-06-17T23:15:12.812Z,94.20
2018-06-17T23:17:41.101Z,94.20
2018-06-17T23:20:09.651Z,94.50
2018-06-17T23:22:38.047Z,94.20
2018-06-17T23:25:06.414Z,94.30
2018-06-17T23:27:34.782Z,94.70
2018-06-17T23:30:03.255Z,94.50
2018-06-17T23:32:31.561Z,94.60
2018-06-17T23:34:59.886Z,94.80
2018-06-17T23:37:29.895Z,94.80
2018-06-17T23:39:58.205Z,94.60
2018-06-17T23:42:32.297Z,94.90
2018-06-17T23:45:00.645Z,95.10
2018-06-17T23:47:34.252Z,94.90
2018-06-17T23:50:08.017Z,95.10
2018-06-17T23:52:41.782Z,95.60
2018-06-17T23:55:15.493Z,95.00
2018-06-17T23:57:43.827Z,95.10
